Time;durP1;ratioP1;P1;durP2;ratioP2;P2;SDS_P1;SDS_P2;PMS_P1;PMS_P2;Temp;Humidity;BMP_temperature;BMP_pressure;BME280_temperature;BME280_humidity;BME280_pressure;Samples;Min_cycle;Max_cycle;Signal;HPM_P1;HPM_P2
2022/03/31 00:00:37;;;;;;;9.98;6.45;;;;;;;;;;5071920;28;20228;-72
2022/03/31 00:03:13;;;;;;;11.52;6.30;;;;;;;;;;5072153;28;20231;-73
2022/03/31 00:05:40;;;;;;;8.93;5.93;;;;;;;;;;5054094;28;20197;-72
2022/03/31 00:08:07;;;;;;;13.32;6.60;;;;;;;;;;5071948;28;20179;-72
2022/03/31 00:10:36;;;;;;;8.63;5.75;;;;;;;;;;5072017;28;20228;-72
2022/03/31 00:13:04;;;;;;;10.93;6.28;;;;;;;;;;5071855;28;20184;-72
2022/03/31 00:15:30;;;;;;;10.75;5.78;;;;;;;;;;5071699;28;20201;-72
2022/03/31 00:17:58;;;;;;;10.02;5.65;;;;;;;;;;5071862;28;20153;-73
2022/03/31 00:20:25;;;;;;;9.57;6.10;;;;;;;;;;5071743;28;20552;-71
2022/03/31 00:22:51;;;;;;;10.20;7.05;;;;;;;;;;5071831;28;20164;-72
2022/03/31 00:25:17;;;;;;;17.67;6.85;;;;;;;;;;5071704;28;20248;-72
2022/03/31 00:27:43;;;;;;;9.05;5.18;;;;;;;;;;5071325;28;20552;-73
2022/03/31 00:30:11;;;;;;;13.23;6.95;;;;;;;;;;5071604;28;20160;-72
2022/03/31 00:32:38;;;;;;;11.63;5.97;;;;;;;;;;5071578;28;20252;-72
2022/03/31 00:35:05;;;;;;;13.38;7.03;;;;;;;;;;5071521;28;20200;-72
2022/03/31 00:37:31;;;;;;;11.90;6.97;;;;;;;;;;5071385;28;20165;-72
2022/03/31 00:39:57;;;;;;;11.15;6.20;;;;;;;;;;5071388;28;20218;-72
2022/03/31 00:42:23;;;;;;;10.68;6.22;;;;;;;;;;5071438;28;20188;-72
2022/03/31 00:44:50;;;;;;;9.48;5.60;;;;;;;;;;5071172;28;20192;-72
2022/03/31 00:47:17;;;;;;;12.82;6.95;;;;;;;;;;5071278;28;20149;-73
2022/03/31 00:49:43;;;;;;;14.80;6.47;;;;;;;;;;5071255;28;20180;-72
2022/03/31 00:52:10;;;;;;;12.48;6.25;;;;;;;;;;5071232;28;20216;-73
2022/03/31 00:54:37;;;;;;;13.93;6.55;;;;;;;;;;5071080;28;20229;-74
2022/03/31 00:57:04;;;;;;;8.32;5.88;;;;;;;;;;5053238;28;20180;-72
2022/03/31 00:59:31;;;;;;;13.13;5.25;;;;;;;;;;5070836;28;20225;-74
2022/03/31 01:01:59;;;;;;;12.23;5.63;;;;;;;;;;5070971;28;20180;-73
2022/03/31 01:04:27;;;;;;;8.70;5.97;;;;;;;;;;5071027;28;20153;-73
2022/03/31 01:06:54;;;;;;;11.52;5.38;;;;;;;;;;5070905;28;20183;-73
2022/03/31 01:09:20;;;;;;;8.93;5.65;;;;;;;;;;5070991;28;20188;-73
2022/03/31 01:11:46;;;;;;;10.23;5.70;;;;;;;;;;5070674;28;20204;-73
2022/03/31 01:14:13;;;;;;;9.10;5.25;;;;;;;;;;5052779;28;20176;-73
2022/03/31 01:16:39;;;;;;;11.85;6.30;;;;;;;;;;5070632;28;20223;-71
2022/03/31 01:19:06;;;;;;;7.45;5.75;;;;;;;;;;5070549;28;20204;-73
2022/03/31 01:21:38;;;;;;;8.63;5.82;;;;;;;;;;5070682;28;20180;-72
2022/03/31 01:24:08;;;;;;;12.93;6.05;;;;;;;;;;5070688;28;20149;-73
2022/03/31 01:26:35;;;;;;;10.90;6.63;;;;;;;;;;5070425;28;20193;-73
2022/03/31 01:29:01;;;;;;;17.50;7.50;;;;;;;;;;5070549;28;20157;-73
2022/03/31 01:31:28;;;;;;;11.10;6.07;;;;;;;;;;5070426;28;20165;-73
2022/03/31 01:33:54;;;;;;;8.43;5.97;;;;;;;;;;5070428;28;20532;-72
2022/03/31 01:36:20;;;;;;;9.18;6.13;;;;;;;;;;5070244;28;20188;-73
2022/03/31 01:38:48;;;;;;;11.45;6.15;;;;;;;;;;5069511;28;20192;-74
2022/03/31 01:41:14;;;;;;;8.93;5.70;;;;;;;;;;5070238;28;20157;-73
2022/03/31 01:43:40;;;;;;;7.18;5.35;;;;;;;;;;5070179;28;20157;-73
2022/03/31 01:46:08;;;;;;;14.25;6.57;;;;;;;;;;5070057;28;20193;-72
2022/03/31 01:48:35;;;;;;;9.98;6.28;;;;;;;;;;5070087;28;20211;-73
2022/03/31 01:51:04;;;;;;;10.50;6.18;;;;;;;;;;5069391;28;20245;-73
2022/03/31 01:53:30;;;;;;;12.77;6.32;;;;;;;;;;5069860;28;20160;-72
2022/03/31 01:55:56;;;;;;;11.73;6.57;;;;;;;;;;5069805;28;20205;-72
2022/03/31 01:58:23;;;;;;;9.10;5.95;;;;;;;;;;5069591;28;20163;-72
2022/03/31 02:00:50;;;;;;;15.57;6.63;;;;;;;;;;5069816;28;20197;-73
2022/03/31 02:03:17;;;;;;;7.32;5.20;;;;;;;;;;5069924;28;20624;-73
2022/03/31 02:05:43;;;;;;;14.25;7.10;;;;;;;;;;5069862;28;20157;-72
2022/03/31 02:08:09;;;;;;;12.02;6.22;;;;;;;;;;5068525;28;20149;-73
2022/03/31 02:10:36;;;;;;;8.77;5.57;;;;;;;;;;5069491;28;20183;-73
2022/03/31 02:13:03;;;;;;;15.63;7.00;;;;;;;;;;5069568;28;20180;-73
2022/03/31 02:15:29;;;;;;;9.73;5.93;;;;;;;;;;5069386;28;20192;-72
2022/03/31 02:17:56;;;;;;;11.20;6.75;;;;;;;;;;5069400;28;20169;-73
2022/03/31 02:20:24;;;;;;;11.43;5.70;;;;;;;;;;5069455;28;20199;-73
2022/03/31 02:22:51;;;;;;;9.85;5.68;;;;;;;;;;5069612;28;20159;-73
2022/03/31 02:25:17;;;;;;;6.95;4.40;;;;;;;;;;5069417;28;20196;-72
2022/03/31 02:27:43;;;;;;;12.15;5.28;;;;;;;;;;5069395;28;20168;-75
2022/03/31 02:30:10;;;;;;;8.10;5.15;;;;;;;;;;5069345;28;20168;-74
2022/03/31 02:32:37;;;;;;;14.73;6.18;;;;;;;;;;5069431;28;20203;-74
2022/03/31 02:35:05;;;;;;;11.60;6.65;;;;;;;;;;5069246;28;20195;-73
2022/03/31 02:37:31;;;;;;;9.38;7.00;;;;;;;;;;5069195;28;20164;-73
2022/03/31 02:39:58;;;;;;;10.77;5.72;;;;;;;;;;5069254;28;20184;-73
2022/03/31 02:42:24;;;;;;;7.80;5.47;;;;;;;;;;5069262;28;20520;-73
2022/03/31 02:44:50;;;;;;;7.60;5.43;;;;;;;;;;5069078;28;20223;-73
2022/03/31 02:47:16;;;;;;;14.73;5.78;;;;;;;;;;5069300;28;20165;-73
2022/03/31 02:49:44;;;;;;;11.30;6.10;;;;;;;;;;5069007;28;20168;-73
2022/03/31 02:52:10;;;;;;;10.13;6.75;;;;;;;;;;5069211;28;20168;-73
2022/03/31 02:57:21;;;;;;;9.05;5.57;;;;;;;;;;5069081;28;20184;-73
2022/03/31 02:59:48;;;;;;;9.75;5.57;;;;;;;;;;5068841;28;20250;-74
2022/03/31 03:02:14;;;;;;;8.82;6.20;;;;;;;;;;5069205;28;20161;-73
2022/03/31 03:04:40;;;;;;;9.18;6.20;;;;;;;;;;5068972;28;20210;-73
2022/03/31 03:07:06;;;;;;;11.88;5.53;;;;;;;;;;5069054;28;20168;-72
2022/03/31 03:09:33;;;;;;;9.13;6.00;;;;;;;;;;5068926;28;20195;-72
2022/03/31 03:11:59;;;;;;;17.52;6.70;;;;;;;;;;5068937;28;20180;-73
2022/03/31 03:14:26;;;;;;;9.40;6.43;;;;;;;;;;5068818;28;20197;-73
2022/03/31 03:16:52;;;;;;;11.70;5.90;;;;;;;;;;5068980;28;20176;-72
2022/03/31 03:19:18;;;;;;;8.20;5.35;;;;;;;;;;5068822;28;20192;-73
2022/03/31 03:21:44;;;;;;;9.50;5.53;;;;;;;;;;5068828;28;20164;-72
2022/03/31 03:24:11;;;;;;;9.85;5.90;;;;;;;;;;5068745;28;20271;-72
2022/03/31 03:26:37;;;;;;;10.93;5.88;;;;;;;;;;5068873;28;20157;-72
2022/03/31 03:29:07;;;;;;;11.65;6.57;;;;;;;;;;5068716;28;20184;-72
2022/03/31 03:31:33;;;;;;;12.18;6.03;;;;;;;;;;5068911;28;20161;-72
2022/03/31 03:33:59;;;;;;;10.80;6.70;;;;;;;;;;5068607;28;20204;-72
2022/03/31 03:36:27;;;;;;;11.73;6.00;;;;;;;;;;5068747;28;20648;-72
2022/03/31 03:38:53;;;;;;;14.50;6.10;;;;;;;;;;5068393;28;20200;-72
2022/03/31 03:41:19;;;;;;;9.30;5.45;;;;;;;;;;5068632;28;20165;-72
2022/03/31 03:43:45;;;;;;;13.25;6.53;;;;;;;;;;5068508;28;20234;-72
2022/03/31 03:46:12;;;;;;;9.48;6.00;;;;;;;;;;5068585;28;20516;-72
2022/03/31 03:48:38;;;;;;;11.00;5.65;;;;;;;;;;5068390;28;20161;-73
2022/03/31 03:51:04;;;;;;;17.33;6.43;;;;;;;;;;5068558;28;20221;-72
2022/03/31 03:53:31;;;;;;;13.32;6.90;;;;;;;;;;5068467;28;20627;-73
2022/03/31 03:55:57;;;;;;;11.63;6.43;;;;;;;;;;5068533;28;20184;-72
2022/03/31 03:58:23;;;;;;;13.73;6.65;;;;;;;;;;5068066;28;20157;-72
2022/03/31 04:00:49;;;;;;;9.30;5.97;;;;;;;;;;5068338;28;20551;-72
2022/03/31 04:03:16;;;;;;;10.68;6.10;;;;;;;;;;5070878;28;20232;-72
2022/03/31 04:05:42;;;;;;;14.55;6.05;;;;;;;;;;5053956;28;20165;-72
2022/03/31 04:08:08;;;;;;;10.63;6.47;;;;;;;;;;5071950;28;20160;-72
2022/03/31 04:10:34;;;;;;;10.60;6.85;;;;;;;;;;5071727;28;20157;-72
2022/03/31 04:13:01;;;;;;;11.48;6.25;;;;;;;;;;5071725;28;20171;-72
2022/03/31 04:15:27;;;;;;;13.02;6.40;;;;;;;;;;5071749;28;20200;-72
2022/03/31 04:17:54;;;;;;;12.25;6.22;;;;;;;;;;5071795;28;20164;-73
2022/03/31 04:20:20;;;;;;;13.68;5.80;;;;;;;;;;5071414;28;20279;-72
2022/03/31 04:22:46;;;;;;;13.40;5.88;;;;;;;;;;5071573;28;20220;-73
2022/03/31 04:25:13;;;;;;;8.55;5.82;;;;;;;;;;5071450;28;20204;-73
2022/03/31 04:27:40;;;;;;;13.68;6.78;;;;;;;;;;5071413;28;20164;-72
2022/03/31 04:30:08;;;;;;;8.30;5.57;;;;;;;;;;5071498;28;20165;-72
2022/03/31 04:32:35;;;;;;;9.82;6.03;;;;;;;;;;5053917;28;20169;-72
2022/03/31 04:35:01;;;;;;;10.65;5.82;;;;;;;;;;5071230;28;20206;-72
2022/03/31 04:37:28;;;;;;;12.00;6.20;;;;;;;;;;5071216;28;20194;-73
2022/03/31 04:39:54;;;;;;;12.23;6.05;;;;;;;;;;5053318;28;20204;-73
2022/03/31 04:42:21;;;;;;;11.20;5.65;;;;;;;;;;5070997;28;20161;-73
2022/03/31 04:44:47;;;;;;;14.45;7.20;;;;;;;;;;5070988;28;20188;-73
2022/03/31 04:47:13;;;;;;;11.88;6.55;;;;;;;;;;5071035;28;20529;-73
2022/03/31 04:49:39;;;;;;;14.38;6.38;;;;;;;;;;5071085;28;20176;-72
2022/03/31 04:52:06;;;;;;;13.55;6.95;;;;;;;;;;5070872;28;20175;-73
2022/03/31 04:54:32;;;;;;;15.82;7.97;;;;;;;;;;5070744;28;20200;-72
2022/03/31 04:56:59;;;;;;;11.93;6.72;;;;;;;;;;5070669;28;20179;-72
2022/03/31 04:59:25;;;;;;;13.73;7.55;;;;;;;;;;5070373;28;20227;-72
2022/03/31 05:01:52;;;;;;;14.75;7.35;;;;;;;;;;5070292;28;20160;-72
2022/03/31 05:04:18;;;;;;;13.98;7.15;;;;;;;;;;5071379;28;20192;-73
2022/03/31 05:06:44;;;;;;;14.07;6.28;;;;;;;;;;5070809;28;20161;-72
2022/03/31 05:09:10;;;;;;;17.98;7.45;;;;;;;;;;5070438;28;20261;-71
2022/03/31 05:11:37;;;;;;;18.25;6.90;;;;;;;;;;5070423;28;20168;-71
2022/03/31 05:14:03;;;;;;;18.98;7.70;;;;;;;;;;5069174;28;20199;-71
2022/03/31 05:16:29;;;;;;;11.98;6.90;;;;;;;;;;5070162;28;20175;-70
2022/03/31 05:18:55;;;;;;;14.48;7.97;;;;;;;;;;5070078;28;20196;-71
2022/03/31 05:21:22;;;;;;;13.60;7.45;;;;;;;;;;5070214;28;20688;-72
2022/03/31 05:23:48;;;;;;;15.77;7.57;;;;;;;;;;5070160;28;20189;-71
2022/03/31 05:26:15;;;;;;;12.68;7.70;;;;;;;;;;5070196;28;20208;-72
2022/03/31 05:28:41;;;;;;;15.10;6.88;;;;;;;;;;5052045;28;20176;-72
2022/03/31 05:31:07;;;;;;;11.02;7.40;;;;;;;;;;5070059;28;20208;-73
2022/03/31 05:33:34;;;;;;;21.77;8.80;;;;;;;;;;5069894;28;20168;-72
2022/03/31 05:36:01;;;;;;;16.83;7.80;;;;;;;;;;5069865;28;20240;-71
2022/03/31 05:38:28;;;;;;;12.48;7.82;;;;;;;;;;5069912;28;20153;-71
2022/03/31 05:40:54;;;;;;;14.80;7.30;;;;;;;;;;5069872;28;20199;-71
2022/03/31 05:43:21;;;;;;;13.57;7.53;;;;;;;;;;5069508;28;20207;-72
2022/03/31 05:45:48;;;;;;;13.32;8.23;;;;;;;;;;5069549;28;20168;-72
2022/03/31 05:48:14;;;;;;;11.02;7.15;;;;;;;;;;5069735;28;20223;-75
2022/03/31 05:50:40;;;;;;;12.65;7.95;;;;;;;;;;5069714;28;20175;-73
2022/03/31 05:53:06;;;;;;;21.30;8.45;;;;;;;;;;5069567;28;20626;-71
2022/03/31 05:55:33;;;;;;;19.27;9.00;;;;;;;;;;5069319;28;20214;-71
2022/03/31 05:57:59;;;;;;;12.27;7.88;;;;;;;;;;5069542;28;20207;-73
2022/03/31 06:00:26;;;;;;;12.68;8.40;;;;;;;;;;5069427;28;20292;-74
2022/03/31 06:02:53;;;;;;;11.73;7.32;;;;;;;;;;5069564;28;20157;-73
2022/03/31 06:05:20;;;;;;;18.65;9.20;;;;;;;;;;5069273;28;20188;-74
2022/03/31 06:07:46;;;;;;;13.38;8.60;;;;;;;;;;5069436;28;20226;-73
2022/03/31 06:10:13;;;;;;;19.67;9.20;;;;;;;;;;5069557;28;20163;-75
2022/03/31 06:12:39;;;;;;;17.02;8.93;;;;;;;;;;5069454;28;20164;-74
2022/03/31 06:15:06;;;;;;;12.68;8.65;;;;;;;;;;5051123;28;20200;-74
2022/03/31 06:17:33;;;;;;;15.15;8.73;;;;;;;;;;5069175;28;20163;-74
2022/03/31 06:20:00;;;;;;;19.83;8.63;;;;;;;;;;5069371;28;20196;-73
2022/03/31 06:22:26;;;;;;;17.05;9.23;;;;;;;;;;5069256;28;20168;-73
2022/03/31 06:24:52;;;;;;;15.68;9.00;;;;;;;;;;5068842;28;20250;-72
2022/03/31 06:27:19;;;;;;;18.10;9.32;;;;;;;;;;5069323;28;20172;-72
2022/03/31 06:29:45;;;;;;;16.33;9.35;;;;;;;;;;5069216;28;20188;-72
2022/03/31 06:32:13;;;;;;;15.07;8.63;;;;;;;;;;5069125;28;20227;-72
2022/03/31 06:34:39;;;;;;;20.85;9.75;;;;;;;;;;5069276;28;20207;-71
2022/03/31 06:37:05;;;;;;;16.58;9.45;;;;;;;;;;5069257;28;20168;-71
2022/03/31 06:39:31;;;;;;;17.08;10.30;;;;;;;;;;5069022;28;20184;-72
2022/03/31 06:41:58;;;;;;;25.10;10.23;;;;;;;;;;5068702;28;20188;-71
2022/03/31 06:44:25;;;;;;;18.35;9.02;;;;;;;;;;5068949;28;20192;-71
2022/03/31 06:46:51;;;;;;;18.75;10.05;;;;;;;;;;5069015;28;20240;-71
2022/03/31 06:49:18;;;;;;;20.45;9.00;;;;;;;;;;5069036;28;20195;-73
2022/03/31 06:51:46;;;;;;;18.73;10.07;;;;;;;;;;5069036;28;20164;-72
2022/03/31 06:54:12;;;;;;;22.05;9.40;;;;;;;;;;5069004;28;20195;-73
2022/03/31 06:56:38;;;;;;;16.95;9.35;;;;;;;;;;5069113;28;20169;-73
2022/03/31 06:59:05;;;;;;;17.08;9.75;;;;;;;;;;5068889;28;20717;-73
2022/03/31 07:01:32;;;;;;;18.20;10.40;;;;;;;;;;5068988;28;20172;-74
2022/03/31 07:03:58;;;;;;;19.63;10.15;;;;;;;;;;5069019;28;20184;-73
2022/03/31 07:06:24;;;;;;;19.60;11.02;;;;;;;;;;5068934;28;20168;-72
2022/03/31 07:08:50;;;;;;;23.00;11.50;;;;;;;;;;5068148;28;20169;-73
2022/03/31 07:11:17;;;;;;;15.20;10.23;;;;;;;;;;5068436;28;20175;-73
2022/03/31 07:13:43;;;;;;;24.35;12.93;;;;;;;;;;5084061;28;20196;-73
2022/03/31 07:16:10;;;;;;;27.95;14.07;;;;;;;;;;5052933;28;20206;-74
2022/03/31 07:18:36;;;;;;;40.47;16.02;;;;;;;;;;5074997;28;20733;-75
2022/03/31 07:21:02;;;;;;;38.92;17.25;;;;;;;;;;5077408;28;20177;-74
2022/03/31 07:23:28;;;;;;;29.80;16.33;;;;;;;;;;5068179;28;20197;-74
2022/03/31 07:25:56;;;;;;;42.65;16.98;;;;;;;;;;5069975;28;20169;-74
2022/03/31 07:28:24;;;;;;;31.45;16.13;;;;;;;;;;5083000;28;20232;-74
2022/03/31 07:30:50;;;;;;;38.00;17.73;;;;;;;;;;5077456;28;20172;-75
2022/03/31 07:33:18;;;;;;;31.35;16.33;;;;;;;;;;5056192;28;20201;-74
2022/03/31 07:35:47;;;;;;;28.98;13.77;;;;;;;;;;5080682;28;20164;-75
2022/03/31 07:38:14;;;;;;;25.35;14.93;;;;;;;;;;5051502;28;20242;-75
2022/03/31 07:40:41;;;;;;;24.02;15.10;;;7.50;99.90;;;;;;5077673;28;20193;-75
2022/03/31 07:43:07;;;;;;;21.65;12.88;;;7.50;99.90;;;;;;5081537;28;20204;-74
2022/03/31 07:45:35;;;;;;;28.67;14.13;;;7.60;99.90;;;;;;5072081;28;20177;-76
2022/03/31 07:48:03;;;;;;;33.33;16.10;;;7.70;99.90;;;;;;5073333;28;20208;-75
2022/03/31 07:50:30;;;;;;;27.10;14.55;;;7.70;99.90;;;;;;5075320;28;20192;-76
2022/03/31 07:52:56;;;;;;;38.60;17.50;;;7.80;99.90;;;;;;5083567;28;20203;-77
2022/03/31 07:55:23;;;;;;;60.00;27.25;;;7.80;99.90;;;;;;5065461;28;20574;-77
2022/03/31 07:57:51;;;;;;;26.70;16.25;;;7.80;99.90;;;;;;5077022;28;20204;-76
2022/03/31 08:00:20;;;;;;;24.08;15.00;;;7.70;99.90;;;;;;5071849;28;20228;-77
2022/03/31 08:02:48;;;;;;;28.00;13.68;;;7.70;99.90;;;;;;5053344;28;20191;-76
2022/03/31 08:05:25;;;;;;;24.65;12.75;;;7.60;99.90;;;;;;5071326;28;20157;-78
2022/03/31 08:07:52;;;;;;;25.95;14.55;;;7.70;99.90;;;;;;5071853;28;20228;-78
2022/03/31 08:10:19;;;;;;;33.65;16.63;;;7.70;99.90;;;;;;5071918;28;20264;-78
2022/03/31 08:12:45;;;;;;;23.58;15.77;;;7.70;99.90;;;;;;5054119;28;20175;-79
2022/03/31 08:15:15;;;;;;;31.58;14.73;;;7.80;99.90;;;;;;5054189;28;20306;-79
2022/03/31 08:17:42;;;;;;;27.20;14.43;;;7.80;99.90;;;;;;5071727;28;20188;-78
2022/03/31 08:20:10;;;;;;;33.63;15.35;;;7.90;99.90;;;;;;5071838;28;20156;-76
2022/03/31 08:22:38;;;;;;;33.85;13.73;;;7.90;99.90;;;;;;5071692;28;20160;-75
2022/03/31 08:25:06;;;;;;;27.17;14.95;;;7.90;99.90;;;;;;5071779;28;20240;-75
2022/03/31 08:27:32;;;;;;;27.42;14.20;;;7.90;99.90;;;;;;5053659;28;20196;-78
2022/03/31 08:35:41;;;;;;;27.38;13.55;;;7.90;99.90;;;;;;5104839;28;20527;-74
2022/03/31 08:38:07;;;;;;;27.80;13.80;;;8.00;99.90;;;;;;5084972;28;20181;-75
2022/03/31 08:40:33;;;;;;;29.85;14.95;;;8.00;99.90;;;;;;5085798;28;20175;-75
2022/03/31 08:43:07;;;;;;;33.00;16.05;;;8.10;99.90;;;;;;5086427;28;20293;-74
2022/03/31 08:45:35;;;;;;;27.02;15.50;;;8.10;99.90;;;;;;5086069;28;20178;-75
2022/03/31 09:09:18;;;;;;;29.13;14.07;;;8.20;99.90;;;;;;5137564;27;20312;-77
2022/03/31 09:11:46;;;;;;;32.30;16.30;;;8.40;99.90;;;;;;5105935;28;20171;-75
2022/03/31 09:14:13;;;;;;;34.25;17.85;;;8.60;99.90;;;;;;5110288;28;20165;-76
2022/03/31 09:52:35;;;;;;;21.98;11.93;;;8.60;99.90;;;;;;5099518;27;1401161;-83
2022/03/31 09:55:01;;;;;;;31.98;16.63;;;8.30;99.90;;;;;;5109466;28;20661;-89
2022/03/31 09:57:28;;;;;;;30.38;14.40;;;8.30;99.90;;;;;;5109501;28;20178;-89
2022/03/31 09:59:55;;;;;;;29.25;15.82;;;8.40;99.90;;;;;;5109256;28;20195;-90
2022/03/31 10:02:22;;;;;;;32.42;17.08;;;8.40;99.90;;;;;;5109146;28;20178;-90
2022/03/31 10:04:48;;;;;;;35.40;17.70;;;8.50;99.90;;;;;;5109182;28;20179;-90
2022/03/31 10:07:16;;;;;;;30.40;17.50;;;8.60;99.90;;;;;;5127031;28;20371;-86
2022/03/31 10:09:43;;;;;;;30.05;16.35;;;8.60;99.90;;;;;;5108858;28;20178;-85
2022/03/31 10:12:17;;;;;;;36.20;18.77;;;8.70;99.90;;;;;;5108848;28;20198;-86
2022/03/31 10:15:09;;;;;;;31.90;19.08;;;8.90;99.90;;;;;;5108449;28;20174;-85
2022/03/31 10:17:36;;;;;;;36.83;18.30;;;9.10;99.90;;;;;;5108443;28;20624;-84
2022/03/31 10:20:16;;;;;;;39.10;17.30;;;9.20;99.90;;;;;;5108741;28;20191;-84
2022/03/31 10:25:41;;;;;;;32.53;15.93;;;9.20;99.90;;;;;;5126925;28;20645;-88
2022/03/31 10:28:11;;;;;;;25.13;14.55;;;9.40;99.90;;;;;;5126924;28;20147;-87
2022/03/31 10:30:40;;;;;;;28.20;14.80;;;9.40;99.90;;;;;;5126886;28;20170;-87
2022/03/31 10:33:14;;;;;;;30.30;15.93;;;9.50;99.90;;;;;;5108511;28;20214;-87
2022/03/31 10:35:59;;;;;;;27.95;15.15;;;9.50;99.90;;;;;;5108644;28;20189;-88
2022/03/31 10:39:01;;;;;;;32.30;14.43;;;9.30;99.90;;;;;;5111468;28;20265;-88
